createdAt,value
2019-04-26T00:00:00.354Z,1.65
2019-04-26T00:02:35.786Z,2.12
2019-04-26T00:05:03.540Z,1.70
2019-04-26T00:07:30.962Z,1.47
2019-04-26T00:10:00.679Z,1.90
2019-04-26T00:12:30.590Z,2.55
2019-04-26T00:15:35.687Z,3.52
2019-04-26T00:18:03.316Z,3.22
2019-04-26T00:20:30.738Z,1.60
2019-04-26T00:22:58.135Z,1.90
2019-04-26T00:25:25.518Z,2.22
2019-04-26T00:27:52.934Z,1.62
2019-04-26T00:30:21.245Z,1.95
2019-04-26T00:32:48.635Z,1.90
2019-04-26T00:35:16.017Z,1.75
2019-04-26T00:37:43.420Z,1.77
2019-04-26T00:40:11.844Z,2.33
2019-04-26T00:42:40.250Z,1.98
2019-04-26T00:45:08.130Z,1.60
2019-04-26T00:47:36.827Z,1.95
2019-04-26T00:50:05.833Z,2.20
2019-04-26T00:52:33.541Z,2.30
2019-04-26T00:55:01.065Z,4.10
2019-04-26T00:57:30.441Z,3.83
2019-04-26T00:59:58.168Z,2.25
2019-04-26T01:02:34.450Z,2.50
2019-04-26T01:05:01.844Z,2.05
2019-04-26T01:07:29.222Z,2.83
2019-04-26T01:09:56.627Z,2.42
2019-04-26T01:12:24.000Z,2.17
2019-04-26T01:14:51.378Z,2.17
2019-04-26T01:17:18.760Z,2.15
2019-04-26T01:19:47.332Z,2.35
2019-04-26T01:22:21.185Z,2.20
2019-04-26T01:24:51.019Z,3.12
2019-04-26T01:27:21.479Z,2.80
2019-04-26T01:29:52.374Z,1.90
2019-04-26T01:32:20.466Z,2.62
2019-04-26T01:34:49.968Z,2.45
2019-04-26T01:37:18.139Z,2.37
2019-04-26T01:39:52.415Z,4.85
2019-04-26T01:42:42.539Z,2.80
2019-04-26T01:45:25.821Z,2.55
2019-04-26T01:47:56.851Z,2.85
2019-04-26T01:50:27.391Z,3.67
2019-04-26T01:52:56.330Z,2.35
2019-04-26T01:55:26.992Z,2.25
2019-04-26T01:57:55.011Z,2.12
2019-04-26T02:00:40.797Z,2.67
2019-04-26T02:03:14.663Z,2.08
2019-04-26T02:05:42.060Z,2.35
2019-04-26T02:08:09.374Z,2.00
2019-04-26T02:10:36.873Z,2.25
2019-04-26T02:13:04.233Z,2.25
2019-04-26T02:15:32.114Z,2.40
2019-04-26T02:18:00.081Z,2.27
2019-04-26T02:21:20.376Z,2.37
2019-04-26T02:26:36.690Z,1.95
2019-04-26T02:29:07.986Z,2.80
2019-04-26T02:31:37.728Z,2.65
2019-04-26T02:34:05.321Z,2.25
2019-04-26T02:36:54.888Z,2.70
2019-04-26T02:39:14.608Z,2.75
2019-04-26T02:41:42.121Z,2.92
2019-04-26T02:44:11.610Z,3.98
2019-04-26T02:46:50.008Z,3.47
2019-04-26T02:49:29.280Z,2.37
2019-04-26T02:52:04.940Z,4.40
2019-04-26T02:54:44.849Z,2.65
2019-04-26T02:57:18.318Z,3.10
2019-04-26T02:59:46.723Z,3.58
2019-04-26T03:02:25.218Z,3.45
2019-04-26T03:04:59.386Z,3.98
2019-04-26T03:07:39.088Z,3.52
2019-04-26T03:10:08.056Z,2.77
2019-04-26T03:12:39.443Z,3.40
2019-04-26T03:15:32.054Z,4.78
2019-04-26T03:18:19.906Z,3.27
2019-04-26T03:20:52.435Z,6.05
2019-04-26T03:23:57.510Z,3.35
2019-04-26T03:26:37.429Z,3.87
2019-04-26T03:29:13.246Z,3.75
2019-04-26T03:32:17.450Z,4.20
2019-04-26T03:34:55.366Z,4.03
2019-04-26T03:37:55.110Z,6.33
2019-04-26T03:40:38.390Z,4.85
2019-04-26T03:43:34.364Z,6.80
2019-04-26T03:46:15.824Z,3.90
2019-04-26T03:48:58.419Z,4.50
2019-04-26T03:52:00.299Z,3.70
2019-04-26T03:54:31.287Z,4.47
2019-04-26T03:57:14.267Z,4.28
2019-04-26T04:00:20.376Z,8.20
2019-04-26T04:03:15.240Z,4.95
2019-04-26T04:05:47.781Z,4.55
2019-04-26T04:08:21.986Z,6.28
2019-04-26T04:10:55.139Z,7.42
2019-04-26T04:13:51.808Z,5.33
2019-04-26T04:16:47.382Z,4.05
2019-04-26T04:19:54.722Z,6.03
2019-04-26T04:22:25.711Z,6.40
2019-04-26T04:24:57.464Z,4.67
2019-04-26T04:27:35.262Z,8.85
2019-04-26T04:33:33.370Z,6.47
2019-04-26T04:36:07.538Z,3.92
2019-04-26T04:38:49.788Z,6.10
2019-04-26T04:41:29.664Z,7.30
2019-04-26T04:44:06.675Z,6.22
2019-04-26T04:47:36.280Z,5.67
2019-04-26T04:50:29.531Z,5.28
2019-04-26T04:53:29.283Z,13.53
2019-04-26T04:56:36.987Z,5.15
2019-04-26T04:59:09.030Z,8.15
2019-04-26T05:02:30.019Z,5.33
2019-04-26T05:05:22.014Z,4.80
2019-04-26T05:08:08.205Z,6.03
2019-04-26T05:10:45.544Z,5.05
2019-04-26T05:13:34.737Z,7.03
2019-04-26T05:16:20.048Z,4.90
2019-04-26T05:19:26.545Z,7.17
2019-04-26T05:22:13.546Z,4.97
2019-04-26T05:25:10.848Z,5.70
2019-04-26T05:28:05.394Z,4.87
2019-04-26T05:31:12.214Z,5.35
2019-04-26T05:34:32.274Z,4.67
2019-04-26T05:37:48.310Z,5.90
2019-04-26T05:41:16.339Z,4.03
2019-04-26T05:44:11.161Z,4.53
2019-04-26T05:48:03.264Z,6.92
2019-04-26T05:51:02.213Z,4.25
2019-04-26T05:54:42.955Z,5.00
2019-04-26T05:57:50.982Z,7.45
2019-04-26T06:00:44.399Z,4.62
2019-04-26T06:03:51.023Z,9.10
2019-04-26T06:06:36.904Z,10.88
2019-04-26T06:09:51.847Z,4.50
2019-04-26T06:12:37.051Z,4.95
2019-04-26T06:15:43.460Z,8.50
2019-04-26T06:18:57.963Z,7.58
2019-04-26T06:21:49.666Z,5.60
2019-04-26T06:24:54.220Z,7.08
2019-04-26T06:27:40.365Z,6.78
2019-04-26T06:30:13.770Z,4.65
2019-04-26T06:33:15.254Z,4.85
2019-04-26T06:35:45.777Z,5.20
2019-04-26T06:39:08.803Z,5.15
2019-04-26T06:42:06.866Z,10.28
2019-04-26T06:45:33.312Z,4.23
2019-04-26T06:48:09.830Z,3.95
2019-04-26T06:50:44.607Z,6.03
2019-04-26T06:53:25.339Z,4.80
2019-04-26T06:56:10.197Z,6.10
2019-04-26T06:58:55.594Z,6.60
2019-04-26T07:01:51.395Z,4.20
2019-04-26T07:05:09.302Z,4.05
2019-04-26T07:08:07.038Z,3.70
2019-04-26T07:11:07.908Z,9.38
2019-04-26T07:14:04.780Z,4.67
2019-04-26T07:16:48.030Z,4.95
2019-04-26T07:20:04.454Z,7.05
2019-04-26T07:23:15.816Z,5.20
2019-04-26T07:26:32.521Z,3.75
2019-04-26T07:29:27.918Z,4.35
2019-04-26T07:32:05.227Z,4.33
2019-04-26T07:35:01.099Z,5.62
2019-04-26T07:38:48.354Z,3.50
2019-04-26T07:41:37.627Z,5.87
2019-04-26T07:44:39.667Z,6.40
2019-04-26T07:47:33.566Z,3.75
2019-04-26T07:50:45.446Z,3.45
2019-04-26T07:53:35.432Z,5.75
2019-04-26T07:56:37.470Z,3.72
2019-04-26T07:59:46.662Z,2.85
2019-04-26T08:02:38.806Z,3.02
2019-04-26T08:05:15.196Z,3.52
2019-04-26T08:07:46.325Z,2.55
2019-04-26T08:10:16.805Z,6.03
2019-04-26T08:12:50.322Z,3.45
2019-04-26T08:15:39.395Z,4.58
2019-04-26T08:18:34.287Z,4.65
2019-04-26T08:21:18.605Z,2.90
2019-04-26T08:24:11.630Z,5.85
2019-04-26T08:26:41.648Z,3.00
2019-04-26T08:29:11.234Z,4.80
2019-04-26T08:31:40.634Z,5.80
2019-04-26T08:34:14.344Z,3.22
2019-04-26T08:36:50.997Z,6.80
2019-04-26T08:39:23.414Z,6.60
2019-04-26T08:41:53.312Z,3.85
2019-04-26T08:44:34.452Z,4.92
2019-04-26T08:47:28.058Z,4.22
2019-04-26T08:50:16.210Z,5.00
2019-04-26T08:52:47.249Z,4.85
2019-04-26T08:55:18.236Z,2.60
2019-04-26T08:57:47.715Z,5.75
2019-04-26T09:00:38.490Z,2.70
2019-04-26T09:03:27.206Z,4.22
2019-04-26T09:06:33.499Z,3.00
2019-04-26T09:09:07.331Z,4.15
2019-04-26T09:11:36.286Z,3.20
2019-04-26T09:14:05.286Z,3.12
2019-04-26T09:16:32.707Z,8.23
2019-04-26T09:19:00.218Z,4.75
2019-04-26T09:21:35.035Z,4.90
2019-04-26T09:24:33.810Z,2.37
2019-04-26T09:27:23.398Z,3.33
2019-04-26T09:30:06.132Z,4.97
2019-04-26T09:32:41.348Z,3.20
2019-04-26T09:35:11.388Z,3.90
2019-04-26T09:37:38.210Z,3.12
2019-04-26T09:40:10.368Z,2.72
2019-04-26T09:43:02.602Z,2.00
2019-04-26T09:45:52.423Z,6.37
2019-04-26T09:48:23.691Z,3.08
2019-04-26T09:50:51.943Z,3.62
2019-04-26T09:53:20.127Z,4.65
2019-04-26T09:55:47.520Z,7.65
2019-04-26T09:58:14.910Z,3.50
2019-04-26T10:00:44.189Z,3.65
2019-04-26T10:03:12.222Z,1.35
2019-04-26T10:05:39.634Z,2.80
2019-04-26T10:08:08.333Z,3.47
2019-04-26T10:10:36.422Z,5.35
2019-04-26T10:13:29.013Z,3.80
2019-04-26T10:16:02.453Z,3.00
2019-04-26T10:18:30.220Z,4.55
2019-04-26T10:20:57.604Z,3.70
2019-04-26T10:23:24.980Z,2.10
2019-04-26T10:25:53.611Z,2.40
2019-04-26T10:28:21.073Z,1.25
2019-04-26T10:30:48.466Z,1.87
2019-04-26T10:33:15.865Z,2.20
2019-04-26T10:35:43.246Z,2.52
2019-04-26T10:38:10.647Z,2.92
2019-04-26T10:40:38.035Z,2.55
2019-04-26T10:43:06.363Z,3.50
2019-04-26T10:45:33.758Z,0.80
2019-04-26T10:48:02.070Z,2.55
2019-04-26T10:50:32.952Z,2.45
2019-04-26T10:53:12.089Z,3.90
2019-04-26T10:55:57.138Z,3.15
2019-04-26T10:58:36.310Z,1.57
2019-04-26T11:01:08.267Z,1.85
2019-04-26T11:03:35.654Z,6.62
2019-04-26T11:06:03.134Z,2.50
2019-04-26T11:08:30.464Z,1.15
2019-04-26T11:13:24.839Z,4.03
2019-04-26T11:15:52.222Z,2.17
2019-04-26T11:18:27.078Z,4.42
2019-04-26T11:20:48.830Z,0.80
2019-04-26T11:23:16.222Z,5.45
2019-04-26T11:25:43.605Z,1.02
2019-04-26T11:28:11.022Z,1.75
2019-04-26T11:30:38.415Z,2.15
2019-04-26T11:33:07.265Z,2.85
2019-04-26T11:35:34.998Z,1.55
2019-04-26T11:38:02.399Z,3.02
2019-04-26T11:40:29.867Z,2.50
2019-04-26T11:42:57.226Z,1.20
2019-04-26T11:45:24.597Z,3.47
2019-04-26T11:47:56.259Z,2.60
2019-04-26T11:50:21.202Z,0.98
2019-04-26T11:52:48.590Z,1.02
2019-04-26T11:55:16.038Z,1.50
2019-04-26T11:57:43.711Z,2.20
2019-04-26T12:00:19.866Z,2.33
2019-04-26T12:02:50.743Z,3.92
2019-04-26T12:05:35.695Z,3.15
2019-04-26T12:08:06.174Z,3.65
2019-04-26T12:10:33.558Z,3.12
2019-04-26T12:13:05.985Z,0.50
2019-04-26T12:15:30.743Z,1.57
2019-04-26T12:17:59.045Z,0.82
2019-04-26T12:20:26.908Z,1.25
2019-04-26T12:22:55.600Z,2.25
2019-04-26T12:25:23.015Z,0.60
2019-04-26T12:27:53.352Z,2.98
2019-04-26T12:30:19.610Z,3.80
2019-04-26T12:32:49.883Z,1.52
2019-04-26T12:35:16.308Z,1.77
2019-04-26T12:37:43.682Z,2.65
2019-04-26T12:40:12.236Z,0.60
2019-04-26T12:42:43.246Z,3.05
2019-04-26T12:45:37.601Z,1.07
2019-04-26T12:48:08.118Z,3.05
2019-04-26T12:50:37.725Z,1.65
2019-04-26T12:53:04.823Z,1.77
2019-04-26T12:55:32.207Z,1.75
2019-04-26T12:57:59.590Z,2.33
2019-04-26T13:00:33.075Z,1.77
2019-04-26T13:03:00.770Z,1.25
2019-04-26T13:05:28.159Z,1.32
2019-04-26T13:07:55.563Z,3.33
2019-04-26T13:10:44.796Z,1.02
2019-04-26T13:13:18.845Z,1.45
2019-04-26T13:16:26.364Z,0.55
2019-04-26T13:18:54.662Z,2.62
2019-04-26T13:21:22.070Z,0.40
2019-04-26T13:23:49.461Z,0.57
2019-04-26T13:26:16.884Z,1.37
2019-04-26T13:28:44.378Z,1.05
2019-04-26T13:31:11.764Z,1.00
2019-04-26T13:33:39.077Z,0.82
2019-04-26T13:36:06.446Z,1.75
2019-04-26T13:38:33.821Z,0.70
2019-04-26T13:41:04.768Z,1.67
2019-04-26T13:43:30.328Z,0.57
2019-04-26T13:46:28.874Z,2.05
2019-04-26T13:49:18.025Z,0.60
2019-04-26T13:51:45.166Z,1.67
2019-04-26T13:54:12.584Z,0.98
2019-04-26T13:56:39.987Z,1.05
2019-04-26T13:59:07.290Z,1.52
2019-04-26T14:01:34.674Z,1.10
2019-04-26T14:04:02.468Z,0.33
2019-04-26T14:06:31.322Z,0.30
2019-04-26T14:09:02.735Z,1.35
2019-04-26T14:11:29.111Z,0.40
2019-04-26T14:13:59.977Z,0.40
2019-04-26T14:16:27.541Z,2.08
2019-04-26T14:18:55.592Z,0.50
2019-04-26T14:21:24.047Z,0.88
2019-04-26T14:24:10.942Z,0.50
2019-04-26T14:26:41.504Z,0.95
2019-04-26T14:29:08.994Z,0.88
2019-04-26T14:31:36.395Z,0.53
2019-04-26T14:34:05.420Z,0.50
2019-04-26T14:36:33.119Z,0.62
2019-04-26T14:39:06.006Z,1.42
2019-04-26T14:41:29.792Z,1.85
2019-04-26T14:43:57.872Z,2.22
2019-04-26T14:46:25.283Z,1.10
2019-04-26T14:49:01.317Z,2.08
2019-04-26T14:51:21.886Z,1.60
2019-04-26T14:53:49.318Z,2.37
2019-04-26T14:56:16.698Z,1.50
2019-04-26T14:58:44.114Z,0.90
2019-04-26T15:01:18.566Z,0.37
2019-04-26T15:04:05.482Z,1.85
2019-04-26T15:06:35.014Z,1.75
2019-04-26T15:09:16.837Z,2.25
2019-04-26T15:11:36.126Z,0.98
2019-04-26T15:14:03.358Z,0.42
2019-04-26T15:16:32.682Z,2.27
2019-04-26T15:19:00.050Z,1.47
2019-04-26T15:21:31.297Z,1.70
2019-04-26T15:23:59.318Z,1.37
2019-04-26T15:26:29.840Z,2.42
2019-04-26T15:28:55.030Z,0.60
2019-04-26T15:31:24.861Z,0.25
2019-04-26T15:33:52.842Z,3.42
2019-04-26T15:36:20.338Z,2.33
2019-04-26T15:38:48.938Z,0.57
2019-04-26T15:41:33.238Z,1.10
2019-04-26T15:44:20.375Z,1.57
2019-04-26T15:46:56.428Z,0.85
2019-04-26T15:49:34.698Z,3.45
2019-04-26T15:52:00.823Z,1.05
2019-04-26T15:54:28.345Z,0.60
2019-04-26T15:56:55.726Z,0.68
2019-04-26T15:59:25.391Z,0.68
2019-04-26T16:01:52.334Z,2.33
2019-04-26T16:04:19.728Z,0.25
2019-04-26T16:06:47.030Z,1.27
2019-04-26T16:09:19.784Z,0.55
2019-04-26T16:11:49.561Z,1.00
2019-04-26T16:14:12.831Z,1.47
2019-04-26T16:16:42.291Z,0.98
2019-04-26T16:19:09.511Z,2.10
2019-04-26T16:21:36.934Z,2.22
2019-04-26T16:24:04.327Z,0.60
2019-04-26T16:26:32.952Z,1.42
2019-04-26T16:29:25.471Z,2.35
2019-04-26T16:32:02.882Z,3.22
2019-04-26T16:34:32.312Z,3.85
2019-04-26T16:36:59.561Z,0.65
2019-04-26T16:39:32.297Z,0.82
2019-04-26T16:41:59.377Z,0.50
2019-04-26T16:44:29.981Z,1.12
2019-04-26T16:47:01.498Z,1.90
2019-04-26T16:49:23.698Z,1.07
2019-04-26T16:52:01.626Z,0.80
2019-04-26T16:56:49.472Z,0.78
2019-04-26T16:59:22.690Z,0.37
2019-04-26T17:00:46.629Z,2.47
2019-04-26T17:01:47.470Z,1.62
2019-04-26T17:04:20.223Z,0.40
2019-04-26T17:09:14.337Z,0.62
2019-04-26T17:09:41.878Z,0.82
2019-04-26T17:11:43.397Z,1.17
2019-04-26T17:14:13.064Z,1.98
2019-04-26T17:16:43.990Z,0.42
2019-04-26T17:19:10.071Z,1.05
2019-04-26T17:22:00.957Z,1.12
2019-04-26T17:24:46.663Z,0.40
2019-04-26T17:27:14.988Z,1.87
2019-04-26T17:29:42.436Z,0.37
2019-04-26T17:32:15.508Z,1.72
2019-04-26T17:34:40.402Z,0.68
2019-04-26T17:37:14.309Z,1.20
2019-04-26T17:39:37.182Z,1.20
2019-04-26T17:42:04.553Z,1.37
2019-04-26T17:44:34.059Z,0.82
2019-04-26T17:47:02.108Z,3.60
2019-04-26T17:49:34.201Z,1.67
2019-04-26T17:52:00.351Z,1.05
2019-04-26T17:54:44.406Z,2.08
2019-04-26T17:56:57.434Z,1.45
2019-04-26T17:59:33.734Z,0.95
2019-04-26T18:02:00.842Z,0.50
2019-04-26T18:04:31.983Z,0.50
2019-04-26T18:07:02.969Z,2.00
2019-04-26T18:09:40.578Z,0.40
2019-04-26T18:11:51.194Z,1.22
2019-04-26T18:14:21.569Z,0.88
2019-04-26T18:16:57.249Z,0.80
2019-04-26T18:19:42.016Z,1.82
2019-04-26T18:22:33.009Z,1.10
2019-04-26T18:24:58.090Z,2.33
2019-04-26T18:27:25.479Z,0.60
2019-04-26T18:29:53.221Z,1.80
2019-04-26T18:32:21.293Z,1.85
2019-04-26T18:34:48.790Z,3.90
2019-04-26T18:37:16.199Z,1.12
2019-04-26T18:39:43.686Z,1.37
2019-04-26T18:42:11.099Z,0.85
2019-04-26T18:44:43.331Z,0.65
2019-04-26T18:47:20.545Z,1.87
2019-04-26T18:49:52.157Z,0.70
2019-04-26T18:52:19.446Z,0.50
2019-04-26T18:54:51.278Z,0.57
2019-04-26T18:57:19.803Z,0.55
2019-04-26T18:59:51.196Z,0.47
2019-04-26T19:02:18.856Z,0.85
2019-04-26T19:04:48.208Z,0.37
2019-04-26T19:07:17.537Z,0.50
2019-04-26T19:09:58.831Z,0.50
2019-04-26T19:12:18.524Z,2.40
2019-04-26T19:15:07.571Z,0.62
2019-04-26T19:17:54.418Z,1.07
2019-04-26T19:20:28.470Z,1.52
2019-04-26T19:22:57.784Z,2.25
2019-04-26T19:25:29.281Z,2.70
2019-04-26T19:27:58.948Z,1.02
2019-04-26T19:30:23.814Z,1.05
2019-04-26T19:32:52.000Z,0.40
2019-04-26T19:35:21.895Z,0.53
2019-04-26T19:37:49.309Z,0.62
2019-04-26T19:40:16.694Z,0.60
2019-04-26T19:42:44.114Z,1.60
2019-04-26T19:45:19.563Z,2.17
2019-04-26T19:47:52.351Z,0.65
2019-04-26T19:50:41.973Z,1.67
2019-04-26T19:53:26.102Z,2.58
2019-04-26T19:56:24.534Z,1.45
2019-04-26T19:58:50.695Z,0.80
2019-04-26T20:01:21.024Z,1.27
2019-04-26T20:03:51.456Z,2.65
2019-04-26T20:06:18.941Z,2.25
2019-04-26T20:08:48.007Z,2.67
2019-04-26T20:11:18.749Z,3.47
2019-04-26T20:13:46.964Z,4.17
2019-04-26T20:16:13.856Z,2.25
2019-04-26T20:18:42.106Z,1.05
2019-04-26T20:21:12.660Z,2.62
2019-04-26T20:23:45.832Z,2.25
2019-04-26T20:26:08.977Z,1.30
2019-04-26T20:28:37.493Z,3.08
2019-04-26T20:31:22.287Z,2.12
2019-04-26T20:33:49.722Z,1.27
2019-04-26T20:36:17.119Z,1.00
2019-04-26T20:38:47.375Z,1.22
2019-04-26T20:41:15.029Z,2.12
2019-04-26T20:43:47.011Z,1.60
2019-04-26T20:46:15.204Z,2.85
2019-04-26T20:48:42.498Z,1.77
2019-04-26T20:51:10.971Z,1.47
2019-04-26T20:53:41.253Z,1.40
2019-04-26T20:56:09.850Z,2.45
2019-04-26T20:58:42.325Z,1.60
2019-04-26T21:01:12.515Z,2.10
2019-04-26T21:03:41.982Z,3.12
2019-04-26T21:06:06.422Z,2.05
2019-04-26T21:08:33.811Z,3.80
2019-04-26T21:11:03.132Z,2.45
2019-04-26T21:13:32.305Z,3.62
2019-04-26T21:16:03.612Z,3.37
2019-04-26T21:18:34.580Z,2.62
2019-04-26T21:20:58.182Z,2.70
2019-04-26T21:23:25.545Z,3.17
2019-04-26T21:26:16.375Z,3.80
2019-04-26T21:28:59.619Z,1.70
2019-04-26T21:31:52.474Z,4.58
2019-04-26T21:34:26.148Z,3.42
2019-04-26T21:37:11.428Z,1.92
2019-04-26T21:40:07.162Z,1.30
2019-04-26T21:42:34.552Z,1.10
2019-04-26T21:45:03.566Z,1.95
2019-04-26T21:47:31.924Z,2.58
2019-04-26T21:50:00.832Z,1.82
2019-04-26T21:52:29.384Z,1.82
2019-04-26T21:54:56.854Z,2.60
2019-04-26T21:57:27.836Z,3.02
2019-04-26T21:59:54.071Z,3.85
2019-04-26T22:02:23.267Z,2.58
2019-04-26T22:04:50.866Z,2.72
2019-04-26T22:07:18.239Z,2.77
2019-04-26T22:09:53.075Z,3.05
2019-04-26T22:12:20.654Z,1.82
2019-04-26T22:14:57.940Z,2.35
2019-04-26T22:17:28.960Z,1.40
2019-04-26T22:20:23.297Z,1.75
2019-04-26T22:23:11.548Z,1.72
2019-04-26T22:25:39.728Z,2.37
2019-04-26T22:28:07.144Z,2.22
2019-04-26T22:30:34.547Z,2.47
2019-04-26T22:33:03.057Z,1.65
2019-04-26T22:35:30.586Z,3.90
2019-04-26T22:37:58.010Z,1.80
2019-04-26T22:40:25.386Z,2.20
2019-04-26T22:42:59.361Z,2.40
2019-04-26T22:45:47.013Z,2.12
2019-04-26T22:48:23.900Z,2.30
2019-04-26T22:50:52.046Z,3.22
2019-04-26T22:53:21.545Z,1.92
2019-04-26T22:55:49.851Z,2.00
2019-04-26T22:58:20.570Z,3.72
2019-04-26T23:00:46.534Z,2.20
2019-04-26T23:03:13.955Z,4.47
2019-04-26T23:05:43.128Z,2.70
2019-04-26T23:08:10.648Z,1.92
2019-04-26T23:10:48.998Z,2.42
2019-04-26T23:13:26.966Z,2.08
2019-04-26T23:16:08.237Z,2.50
2019-04-26T23:18:54.310Z,1.75
2019-04-26T23:21:38.943Z,2.20
2019-04-26T23:24:06.422Z,1.82
2019-04-26T23:26:37.423Z,1.75
2019-04-26T23:29:03.748Z,1.77
2019-04-26T23:31:31.271Z,2.92
2019-04-26T23:33:58.684Z,2.83
2019-04-26T23:36:26.057Z,3.02
2019-04-26T23:38:53.443Z,3.10
2019-04-26T23:41:20.850Z,1.85
2019-04-26T23:43:48.238Z,3.08
2019-04-26T23:46:18.790Z,1.90
2019-04-26T23:48:48.850Z,2.55
2019-04-26T23:51:14.030Z,2.47
2019-04-26T23:53:42.857Z,2.58
2019-04-26T23:56:10.310Z,3.37
2019-04-26T23:58:40.227Z,2.58
